createdAt,value
2023-09-01T00:00:18.297Z,25
2023-09-01T00:01:20.064Z,25
2023-09-01T00:02:22.134Z,25
2023-09-01T00:03:23.895Z,25
2023-09-01T00:04:26.375Z,25
2023-09-01T00:05:28.229Z,25
2023-09-01T00:06:30.022Z,25.1
2023-09-01T00:07:31.948Z,25.1
2023-09-01T00:08:33.743Z,25
2023-09-01T00:09:35.531Z,25
2023-09-01T00:10:37.259Z,25
2023-09-01T00:11:38.970Z,25
2023-09-01T00:12:40.679Z,25
2023-09-01T00:13:42.504Z,25
2023-09-01T00:14:44.677Z,25
2023-09-01T00:15:46.440Z,25
2023-09-01T00:16:48.273Z,25
2023-09-01T00:17:50.598Z,25
2023-09-01T00:18:52.909Z,25
2023-09-01T00:19:54.658Z,25
2023-09-01T00:20:56.387Z,25.1
2023-09-01T00:21:58.207Z,25
2023-09-01T00:22:59.928Z,25.1
2023-09-01T00:24:01.796Z,25.1
2023-09-01T00:25:03.547Z,25.1
2023-09-01T00:26:05.295Z,25
2023-09-01T00:27:07.161Z,25
2023-09-01T00:28:08.853Z,25
2023-09-01T00:29:10.582Z,25
2023-09-01T00:30:12.478Z,25
2023-09-01T00:31:14.302Z,25
2023-09-01T00:32:16.308Z,25
2023-09-01T00:33:18.064Z,25
2023-09-01T00:34:19.916Z,25
2023-09-01T00:35:21.755Z,25
2023-09-01T00:36:23.457Z,24.9
2023-09-01T00:37:25.204Z,24.9
2023-09-01T00:38:26.949Z,24.9
2023-09-01T00:39:28.732Z,24.9
2023-09-01T00:40:30.479Z,25
2023-09-01T00:41:32.185Z,25
2023-09-01T00:42:33.932Z,25
2023-09-01T00:43:35.641Z,24.9
2023-09-01T00:44:37.519Z,24.9
2023-09-01T00:45:39.310Z,25
2023-09-01T00:46:41.324Z,25
2023-09-01T00:47:43.678Z,25
2023-09-01T00:48:45.625Z,25
2023-09-01T00:49:49.878Z,24.9
2023-09-01T00:50:51.675Z,24.9
2023-09-01T00:51:53.657Z,24.9
2023-09-01T00:52:55.422Z,24.9
2023-09-01T00:53:57.141Z,24.9
2023-09-01T00:54:58.874Z,24.9
2023-09-01T00:56:00.648Z,24.9
2023-09-01T00:57:02.458Z,24.9
2023-09-01T00:58:04.182Z,24.9
2023-09-01T00:59:06.153Z,24.9
2023-09-01T01:00:08.090Z,24.9
2023-09-01T01:01:09.847Z,24.9
2023-09-01T01:02:11.589Z,24.9
2023-09-01T01:03:13.396Z,24.9
2023-09-01T01:04:16.039Z,24.9
2023-09-01T01:05:17.913Z,24.9
2023-09-01T01:06:19.745Z,24.9
2023-09-01T01:07:21.545Z,24.9
2023-09-01T01:08:23.302Z,24.9
2023-09-01T01:09:25.050Z,24.9
2023-09-01T01:10:26.878Z,24.9
2023-09-01T01:11:31.769Z,24.9
2023-09-01T01:12:33.505Z,24.9
2023-09-01T01:13:35.270Z,24.8
2023-09-01T01:14:37.097Z,24.9
2023-09-01T01:15:38.834Z,24.9
2023-09-01T01:16:40.592Z,24.9
2023-09-01T01:17:42.344Z,24.9
2023-09-01T01:18:44.323Z,24.9
2023-09-01T01:19:46.083Z,24.8
2023-09-01T01:20:47.812Z,24.9
2023-09-01T01:21:49.539Z,24.9
2023-09-01T01:22:51.261Z,24.9
2023-09-01T01:23:53.072Z,24.9
2023-09-01T01:24:54.815Z,24.9
2023-09-01T01:25:56.596Z,24.8
2023-09-01T01:26:58.485Z,24.8
2023-09-01T01:28:00.283Z,24.8
2023-09-01T01:29:01.988Z,24.8
2023-09-01T01:30:03.735Z,24.8
2023-09-01T01:31:05.527Z,24.8
2023-09-01T01:32:07.369Z,24.8
2023-09-01T01:33:09.115Z,24.8
2023-09-01T01:34:11.151Z,24.8
2023-09-01T01:35:13.245Z,24.8
2023-09-01T01:36:15.113Z,24.8
2023-09-01T01:37:17.184Z,24.8
2023-09-01T01:38:18.928Z,24.8
2023-09-01T01:39:20.659Z,24.8
2023-09-01T01:40:22.413Z,24.8
2023-09-01T01:41:24.154Z,24.8
2023-09-01T01:42:25.910Z,24.8
2023-09-01T01:43:27.629Z,24.8
2023-09-01T01:44:29.372Z,24.8
2023-09-01T01:45:31.113Z,24.8
2023-09-01T01:46:33.034Z,24.8
2023-09-01T01:47:34.861Z,24.8
2023-09-01T01:48:36.800Z,24.8
2023-09-01T01:49:38.524Z,24.8
2023-09-01T01:50:40.421Z,24.8
2023-09-01T01:51:42.691Z,24.8
2023-09-01T01:52:44.422Z,24.8
2023-09-01T01:53:46.187Z,24.8
2023-09-01T01:54:48.054Z,24.7
2023-09-01T01:55:49.762Z,24.7
2023-09-01T01:56:51.574Z,24.7
2023-09-01T01:57:53.420Z,24.8
2023-09-01T01:58:55.277Z,24.8
2023-09-01T01:59:57.441Z,24.7
2023-09-01T02:00:59.257Z,24.8
2023-09-01T02:02:01.723Z,24.8
2023-09-01T02:03:03.493Z,24.7
2023-09-01T02:04:05.624Z,24.7
2023-09-01T02:05:07.379Z,24.7
2023-09-01T02:06:09.344Z,24.7
2023-09-01T02:07:11.082Z,24.7
2023-09-01T02:08:13.199Z,24.7
2023-09-01T02:09:16.459Z,24.7
2023-09-01T02:10:18.234Z,24.7
2023-09-01T02:11:20.131Z,24.7
2023-09-01T02:12:21.927Z,24.7
2023-09-01T02:13:23.734Z,24.7
2023-09-01T02:14:25.473Z,24.7
2023-09-01T02:15:27.261Z,24.6
2023-09-01T02:16:29.004Z,24.6
2023-09-01T02:17:30.707Z,24.6
2023-09-01T02:18:32.772Z,24.7
2023-09-01T02:19:34.908Z,24.6
2023-09-01T02:20:36.732Z,24.6
2023-09-01T02:21:38.443Z,24.7
2023-09-01T02:22:40.132Z,24.7
2023-09-01T02:23:41.860Z,24.7
2023-09-01T02:24:43.609Z,24.7
2023-09-01T02:25:45.559Z,24.7
2023-09-01T02:26:47.598Z,24.7
2023-09-01T02:27:52.035Z,24.7
2023-09-01T02:28:53.792Z,24.7
2023-09-01T02:29:55.585Z,24.6
2023-09-01T02:30:57.399Z,24.6
2023-09-01T02:31:59.404Z,24.6
2023-09-01T02:33:01.169Z,24.6
2023-09-01T02:34:03.259Z,24.6
2023-09-01T02:35:05.008Z,24.6
2023-09-01T02:36:06.730Z,24.6
2023-09-01T02:37:08.476Z,24.6
2023-09-01T02:38:10.225Z,24.6
2023-09-01T02:39:11.929Z,24.6
2023-09-01T02:40:13.663Z,24.6
2023-09-01T02:41:15.634Z,24.6
2023-09-01T02:42:17.419Z,24.6
2023-09-01T02:43:19.224Z,24.6
2023-09-01T02:44:20.992Z,24.6
2023-09-01T02:45:22.677Z,24.6
2023-09-01T02:46:24.487Z,24.6
2023-09-01T02:47:26.613Z,24.6
2023-09-01T02:48:28.911Z,24.6
2023-09-01T02:49:30.667Z,24.6
2023-09-01T02:50:32.436Z,24.6
2023-09-01T02:51:36.882Z,24.6
2023-09-01T02:52:38.630Z,24.6
2023-09-01T02:53:40.399Z,24.6
2023-09-01T02:54:42.128Z,24.6
2023-09-01T02:55:43.899Z,24.6
2023-09-01T02:56:45.641Z,24.6
2023-09-01T02:57:47.385Z,24.6
2023-09-01T02:58:49.141Z,24.6
2023-09-01T02:59:50.899Z,24.6
2023-09-01T03:00:52.670Z,24.6
2023-09-01T03:01:54.768Z,24.6
2023-09-01T03:02:56.607Z,24.6
2023-09-01T03:04:01.137Z,24.6
2023-09-01T03:05:02.887Z,24.6
2023-09-01T03:06:04.596Z,24.6
2023-09-01T03:07:06.340Z,24.6
2023-09-01T03:08:08.101Z,24.6
2023-09-01T03:09:09.840Z,24.6
2023-09-01T03:10:11.534Z,24.6
2023-09-01T03:11:13.320Z,24.5
2023-09-01T03:12:15.132Z,24.5
2023-09-01T03:13:16.922Z,24.5
2023-09-01T03:14:18.625Z,24.5
2023-09-01T03:15:20.426Z,24.5
2023-09-01T03:16:22.179Z,24.5
2023-09-01T03:17:24.196Z,24.5
2023-09-01T03:18:26.225Z,24.5
2023-09-01T03:19:27.970Z,24.4
2023-09-01T03:20:29.663Z,24.4
2023-09-01T03:21:31.437Z,24.4
2023-09-01T03:22:33.483Z,24.4
2023-09-01T03:23:35.379Z,24.4
2023-09-01T03:24:37.735Z,24.4
2023-09-01T03:25:39.482Z,24.4
2023-09-01T03:26:41.264Z,24.3
2023-09-01T03:27:43.000Z,24.3
2023-09-01T03:28:44.879Z,24.3
2023-09-01T03:29:46.737Z,24.3
2023-09-01T03:30:48.550Z,24.3
2023-09-01T03:31:50.363Z,24.3
2023-09-01T03:32:52.578Z,24.3
2023-09-01T03:33:54.994Z,24.3
2023-09-01T03:34:56.722Z,24.3
2023-09-01T03:35:58.468Z,24.3
2023-09-01T03:37:00.181Z,24.3
2023-09-01T03:38:01.910Z,24.3
2023-09-01T03:39:03.747Z,24.3
2023-09-01T03:40:05.434Z,24.3
2023-09-01T03:41:07.164Z,24.3
2023-09-01T03:42:08.906Z,24.3
2023-09-01T03:43:10.680Z,24.2
2023-09-01T03:44:12.459Z,24.2
2023-09-01T03:45:14.220Z,24.2
2023-09-01T03:46:16.085Z,24.2
2023-09-01T03:47:17.986Z,24.2
2023-09-01T03:48:19.951Z,24.2
2023-09-01T03:49:23.173Z,24.2
2023-09-01T03:50:25.051Z,24.2
2023-09-01T03:51:26.794Z,24.2
2023-09-01T03:52:28.571Z,24.2
2023-09-01T03:53:30.334Z,24.3
2023-09-01T03:54:35.016Z,24.2
2023-09-01T03:55:36.752Z,24.2
2023-09-01T03:56:41.126Z,24.2
2023-09-01T03:57:42.848Z,24.2
2023-09-01T03:58:44.569Z,24.3
2023-09-01T03:59:47.334Z,24.2
2023-09-01T04:00:49.111Z,24.2
2023-09-01T04:01:53.379Z,24.1
2023-09-01T04:02:55.486Z,24.1
2023-09-01T04:03:57.413Z,24
2023-09-01T04:04:59.630Z,24
2023-09-01T04:06:01.433Z,24
2023-09-01T04:07:03.175Z,24.1
2023-09-01T04:08:04.885Z,24.1
2023-09-01T04:09:06.747Z,24.1
2023-09-01T04:10:08.497Z,24.2
2023-09-01T04:11:10.385Z,24.1
2023-09-01T04:12:12.161Z,24.1
2023-09-01T04:13:13.965Z,24.1
2023-09-01T04:14:15.745Z,24.2
2023-09-01T04:15:17.512Z,24.2
2023-09-01T04:16:19.293Z,24.2
2023-09-01T04:17:21.525Z,24.1
2023-09-01T04:18:23.321Z,24.1
2023-09-01T04:19:25.141Z,24
2023-09-01T04:20:26.995Z,24.1
2023-09-01T04:21:28.734Z,24.1
2023-09-01T04:22:30.488Z,24
2023-09-01T04:23:32.211Z,24
2023-09-01T04:24:33.930Z,24
2023-09-01T04:25:35.658Z,24
2023-09-01T04:26:37.381Z,24.1
2023-09-01T04:27:39.131Z,24.1
2023-09-01T04:28:41.006Z,24.1
2023-09-01T04:29:46.928Z,24.1
2023-09-01T04:31:12.730Z,24.2
2023-09-01T04:32:14.724Z,24.2
2023-09-01T04:33:16.495Z,24.2
2023-09-01T04:34:18.772Z,24.1
2023-09-01T04:35:20.473Z,24.1
2023-09-01T04:36:27.451Z,24.1
2023-09-01T04:37:49.372Z,24.2
2023-09-01T04:38:53.911Z,24.3
2023-09-01T04:39:55.756Z,24.4
2023-09-01T04:40:57.857Z,24.4
2023-09-01T04:41:59.988Z,24.4
2023-09-01T04:43:01.814Z,24.4
2023-09-01T04:44:03.576Z,24.4
2023-09-01T04:45:05.327Z,24.4
2023-09-01T04:46:07.168Z,24.4
2023-09-01T04:47:09.241Z,24.4
2023-09-01T04:48:10.990Z,24.4
2023-09-01T04:49:12.930Z,24.5
2023-09-01T04:50:14.755Z,24.5
2023-09-01T04:51:16.513Z,24.4
2023-09-01T04:52:21.895Z,24.4
2023-09-01T04:53:45.043Z,24.4
2023-09-01T04:54:46.817Z,24.4
2023-09-01T04:55:48.524Z,24.4
2023-09-01T04:56:50.241Z,24.4
2023-09-01T04:57:52.030Z,24.5
2023-09-01T04:58:53.814Z,24.5
2023-09-01T04:59:55.645Z,24.5
2023-09-01T05:00:57.419Z,24.5
2023-09-01T05:01:59.533Z,24.5
2023-09-01T05:03:01.322Z,24.5
2023-09-01T05:04:03.816Z,24.5
2023-09-01T05:05:05.626Z,24.5
2023-09-01T05:06:07.359Z,24.5
2023-09-01T05:07:09.151Z,24.5
2023-09-01T05:08:10.848Z,24.5
2023-09-01T05:09:13.640Z,24.6
2023-09-01T05:10:15.408Z,24.6
2023-09-01T05:11:17.249Z,24.6
2023-09-01T05:12:19.003Z,24.6
2023-09-01T05:13:20.709Z,24.6
2023-09-01T05:14:22.477Z,24.7
2023-09-01T05:15:24.240Z,24.7
2023-09-01T05:16:26.266Z,24.7
2023-09-01T05:17:28.252Z,24.7
2023-09-01T05:18:30.423Z,24.8
2023-09-01T05:19:32.265Z,24.7
2023-09-01T05:20:34.123Z,24.8
2023-09-01T05:21:35.923Z,24.8
2023-09-01T05:22:37.779Z,24.7
2023-09-01T05:23:40.000Z,24.7
2023-09-01T05:24:41.715Z,24.7
2023-09-01T05:25:43.465Z,24.7
2023-09-01T05:26:45.161Z,24.7
2023-09-01T05:27:46.980Z,24.7
2023-09-01T05:28:48.753Z,24.7
2023-09-01T05:29:50.498Z,24.8
2023-09-01T05:30:52.240Z,24.8
2023-09-01T05:31:54.412Z,24.8
2023-09-01T05:32:56.329Z,24.8
2023-09-01T05:33:58.336Z,24.8
2023-09-01T05:35:00.237Z,24.8
2023-09-01T05:36:02.023Z,24.8
2023-09-01T05:37:03.800Z,24.9
2023-09-01T05:38:05.632Z,24.9
2023-09-01T05:39:07.389Z,24.9
2023-09-01T05:40:09.104Z,24.9
2023-09-01T05:41:10.869Z,24.9
2023-09-01T05:42:12.563Z,24.9
2023-09-01T05:43:14.421Z,24.9
2023-09-01T05:44:16.170Z,24.9
2023-09-01T05:45:17.870Z,24.9
2023-09-01T05:46:19.704Z,25
2023-09-01T05:47:21.794Z,25
2023-09-01T05:48:23.845Z,25
2023-09-01T05:49:25.558Z,25.1
2023-09-01T05:50:27.399Z,25.1
2023-09-01T05:51:29.424Z,25.1
2023-09-01T05:52:31.211Z,25.1
2023-09-01T05:53:32.943Z,25.1
2023-09-01T05:54:34.670Z,25.1
2023-09-01T05:55:36.520Z,25.1
2023-09-01T05:56:38.258Z,25.2
2023-09-01T05:57:40.028Z,25.2
2023-09-01T05:58:42.006Z,25.3
2023-09-01T05:59:43.758Z,25.3
2023-09-01T06:00:48.451Z,25.3
2023-09-01T06:01:50.341Z,25.4
2023-09-01T06:02:52.555Z,25.4
2023-09-01T06:03:54.825Z,25.4
2023-09-01T06:04:56.776Z,25.4
2023-09-01T06:05:58.542Z,25.5
2023-09-01T06:07:00.399Z,25.5
2023-09-01T06:08:02.193Z,25.5
2023-09-01T06:09:03.951Z,25.5
2023-09-01T06:10:05.669Z,25.5
2023-09-01T06:11:07.471Z,25.5
2023-09-01T06:12:09.214Z,25.6
2023-09-01T06:13:11.040Z,25.6
2023-09-01T06:14:12.770Z,25.6
2023-09-01T06:15:14.503Z,25.6
2023-09-01T06:16:16.298Z,25.6
2023-09-01T06:17:18.680Z,25.6
2023-09-01T06:18:48.585Z,25.7
2023-09-01T06:19:50.358Z,25.7
2023-09-01T06:20:52.052Z,25.7
2023-09-01T06:21:53.796Z,25.7
2023-09-01T06:22:55.587Z,25.7
2023-09-01T06:23:57.450Z,25.7
2023-09-01T06:24:59.252Z,25.7
2023-09-01T06:26:00.957Z,25.8
2023-09-01T06:27:02.696Z,25.8
2023-09-01T06:28:04.426Z,25.8
2023-09-01T06:29:06.209Z,25.8
2023-09-01T06:30:08.054Z,25.8
2023-09-01T06:31:10.100Z,25.8
2023-09-01T06:32:12.091Z,25.9
2023-09-01T06:33:13.988Z,25.9
2023-09-01T06:34:16.068Z,25.9
2023-09-01T06:35:17.801Z,25.9
2023-09-01T06:36:19.649Z,25.9
2023-09-01T06:37:21.427Z,26
2023-09-01T06:38:23.318Z,26
2023-09-01T06:39:25.097Z,26
2023-09-01T06:40:26.824Z,26
2023-09-01T06:41:28.566Z,26
2023-09-01T06:42:30.277Z,26
2023-09-01T06:43:32.013Z,26
2023-09-01T06:44:33.775Z,26
2023-09-01T06:45:35.548Z,26
2023-09-01T06:46:40.522Z,26
2023-09-01T06:47:42.320Z,26
2023-09-01T06:48:44.413Z,26
2023-09-01T06:49:46.369Z,26.1
2023-09-01T06:50:48.077Z,26
2023-09-01T06:51:50.018Z,26
2023-09-01T06:52:51.799Z,26
2023-09-01T06:53:53.712Z,26
2023-09-01T06:54:55.465Z,26
2023-09-01T06:55:57.221Z,26
2023-09-01T06:56:58.988Z,26.1
2023-09-01T06:58:00.857Z,26.1
2023-09-01T06:59:02.883Z,26.1
2023-09-01T07:00:04.674Z,26.1
2023-09-01T07:01:06.551Z,26.1
2023-09-01T07:02:08.512Z,26.1
2023-09-01T07:03:10.326Z,26.1
2023-09-01T07:04:12.372Z,26.1
2023-09-01T07:05:14.702Z,26.1
2023-09-01T07:06:16.409Z,26.1
2023-09-01T07:07:18.127Z,26.1
2023-09-01T07:08:19.895Z,26.1
2023-09-01T07:09:21.705Z,26.2
2023-09-01T07:10:23.518Z,26.2
2023-09-01T07:11:25.217Z,26.2
2023-09-01T07:12:26.938Z,26.2
2023-09-01T07:13:28.727Z,26.2
2023-09-01T07:14:30.455Z,26.2
2023-09-01T07:15:32.195Z,26.2
2023-09-01T07:16:33.939Z,26.3
2023-09-01T07:17:35.682Z,26.3
2023-09-01T07:18:37.704Z,26.2
2023-09-01T07:19:39.546Z,26.1
2023-09-01T07:20:43.799Z,26.1
2023-09-01T07:21:45.488Z,26
2023-09-01T07:22:47.244Z,26
2023-09-01T07:23:49.063Z,26
2023-09-01T07:24:50.883Z,26
2023-09-01T07:25:52.638Z,26
2023-09-01T07:26:54.349Z,26.1
2023-09-01T07:27:56.061Z,26.1
2023-09-01T07:28:57.879Z,26.1
2023-09-01T07:29:59.609Z,26.1
2023-09-01T07:31:01.390Z,26.2
2023-09-01T07:32:03.520Z,26.2
2023-09-01T07:33:05.379Z,26.2
2023-09-01T07:34:07.363Z,26.2
2023-09-01T07:35:09.164Z,26.3
2023-09-01T07:36:10.919Z,26.2
2023-09-01T07:37:12.839Z,26.2
2023-09-01T07:38:14.844Z,26.3
2023-09-01T07:39:18.275Z,26.3
2023-09-01T07:40:20.062Z,26.3
2023-09-01T07:41:21.801Z,26.3
2023-09-01T07:42:23.624Z,26.3
2023-09-01T07:43:25.348Z,26.3
2023-09-01T07:44:27.133Z,26.3
2023-09-01T07:45:28.893Z,26.4
2023-09-01T07:46:31.087Z,26.4
2023-09-01T07:47:32.822Z,26.4
2023-09-01T07:48:34.842Z,26.4
2023-09-01T07:49:37.321Z,26.4
2023-09-01T07:50:39.051Z,26.4
2023-09-01T07:51:40.802Z,26.4
2023-09-01T07:52:42.632Z,26.4
2023-09-01T07:53:44.393Z,26.4
2023-09-01T07:54:46.197Z,26.4
2023-09-01T07:55:47.990Z,26.4
2023-09-01T07:56:49.701Z,26.4
2023-09-01T07:57:51.564Z,26.4
2023-09-01T07:58:53.324Z,26.4
2023-09-01T07:59:55.074Z,26.4
2023-09-01T08:00:56.803Z,26.4
2023-09-01T08:01:58.771Z,26.4
2023-09-01T08:03:00.601Z,26.4
2023-09-01T08:04:03.008Z,26.4
2023-09-01T08:05:05.078Z,26.4
2023-09-01T08:06:09.043Z,26.4
2023-09-01T08:07:10.867Z,26.4
2023-09-01T08:08:12.895Z,26.4
2023-09-01T08:09:16.731Z,26.4
2023-09-01T08:10:18.599Z,26.5
2023-09-01T08:11:20.633Z,26.5
2023-09-01T08:12:22.332Z,26.5
2023-09-01T08:13:24.044Z,26.4
2023-09-01T08:14:25.877Z,26.4
2023-09-01T08:15:27.777Z,26.4
2023-09-01T08:16:29.606Z,26.4
2023-09-01T08:17:31.768Z,26.4
2023-09-01T08:18:33.706Z,26.4
2023-09-01T08:19:35.443Z,26.4
2023-09-01T08:20:37.344Z,26.4
2023-09-01T08:21:39.085Z,26.4
2023-09-01T08:22:40.877Z,26.4
2023-09-01T08:23:42.734Z,26.4
2023-09-01T08:24:44.505Z,26.4
2023-09-01T08:25:46.383Z,26.4
2023-09-01T08:26:51.018Z,26.4
2023-09-01T08:27:52.736Z,26.4
2023-09-01T08:28:54.833Z,26.4
2023-09-01T08:29:56.583Z,26.4
2023-09-01T08:30:58.542Z,26.4
2023-09-01T08:32:00.669Z,26.4
2023-09-01T08:33:02.586Z,26.3
2023-09-01T08:34:04.728Z,26.3
2023-09-01T08:35:06.551Z,26.3
2023-09-01T08:36:08.317Z,26.3
2023-09-01T08:37:10.053Z,26.3
2023-09-01T08:38:11.782Z,26.3
2023-09-01T08:39:13.880Z,26.3
2023-09-01T08:40:15.657Z,26.4
2023-09-01T08:41:17.422Z,26.3
2023-09-01T08:42:19.321Z,26.4
2023-09-01T08:43:21.006Z,26.3
2023-09-01T08:44:22.833Z,26.3
2023-09-01T08:45:24.573Z,26.3
2023-09-01T08:46:26.418Z,26.3
2023-09-01T08:47:28.439Z,26.3
2023-09-01T08:48:30.308Z,26.3
2023-09-01T08:49:32.016Z,26.3
2023-09-01T08:50:33.857Z,26.3
2023-09-01T08:51:35.565Z,26.3
2023-09-01T08:52:37.286Z,26.3
2023-09-01T08:53:39.069Z,26.3
2023-09-01T08:54:40.816Z,26.3
2023-09-01T08:55:42.563Z,26.3
2023-09-01T08:56:44.301Z,26.3
2023-09-01T08:57:46.142Z,26.3
2023-09-01T08:58:47.844Z,26.3
2023-09-01T08:59:49.575Z,26.3
2023-09-01T09:00:51.488Z,26.3
2023-09-01T09:01:53.194Z,26.3
2023-09-01T09:03:06.812Z,26.3
2023-09-01T09:04:11.354Z,26.3
2023-09-01T09:05:13.755Z,26.3
2023-09-01T09:06:15.477Z,26.3
2023-09-01T09:07:17.360Z,26.3
2023-09-01T09:08:19.301Z,26.3
2023-09-01T09:09:21.132Z,26.3
2023-09-01T09:10:22.915Z,26.3
2023-09-01T09:11:24.633Z,26.3
2023-09-01T09:12:26.465Z,26.2
2023-09-01T09:13:28.331Z,26.2
2023-09-01T09:14:31.081Z,26.2
2023-09-01T09:16:00.078Z,26.2
2023-09-01T09:17:02.039Z,26.2
2023-09-01T09:18:03.941Z,26.3
2023-09-01T09:19:06.833Z,26.3
2023-09-01T09:20:09.583Z,26.3
2023-09-01T09:21:11.443Z,26.3
2023-09-01T09:22:13.164Z,26.2
2023-09-01T09:23:15.069Z,26.2
2023-09-01T09:24:22.618Z,26.2
2023-09-01T09:25:25.187Z,26.2
2023-09-01T09:26:26.960Z,26.2
2023-09-01T09:27:28.724Z,26.2
2023-09-01T09:28:30.475Z,26.2
2023-09-01T09:29:33.307Z,26.2
2023-09-01T09:30:35.050Z,26.3
2023-09-01T09:31:36.889Z,26.2
2023-09-01T09:32:38.958Z,26.2
2023-09-01T09:33:40.835Z,26.2
2023-09-01T09:34:42.552Z,26.2
2023-09-01T09:35:44.246Z,26.2
2023-09-01T09:36:45.995Z,26.2
2023-09-01T09:37:47.842Z,26.2
2023-09-01T09:38:49.625Z,26.2
2023-09-01T09:39:51.383Z,26.2
2023-09-01T09:40:53.156Z,26.2
2023-09-01T09:41:54.922Z,26.2
2023-09-01T09:42:56.769Z,26.2
2023-09-01T09:43:58.620Z,26.2
2023-09-01T09:45:01.114Z,26.2
2023-09-01T09:46:02.836Z,26.2
2023-09-01T09:47:05.005Z,26.2
2023-09-01T09:48:06.831Z,26.2
2023-09-01T09:49:09.566Z,26.2
2023-09-01T09:50:11.502Z,26.2
2023-09-01T09:51:13.222Z,26.2
2023-09-01T09:52:14.962Z,26.2
2023-09-01T09:53:16.773Z,26.2
2023-09-01T09:54:18.510Z,26.2
2023-09-01T09:55:20.199Z,26.2
2023-09-01T09:56:22.156Z,26.2
2023-09-01T09:57:23.932Z,26.2
2023-09-01T09:58:25.630Z,26.2
2023-09-01T09:59:29.921Z,26.2
2023-09-01T10:00:31.679Z,26.2
2023-09-01T10:01:33.496Z,26.2
2023-09-01T10:02:37.253Z,26.2
2023-09-01T10:03:42.742Z,26.2
2023-09-01T10:04:44.670Z,26.2
2023-09-01T10:05:46.407Z,26.2
2023-09-01T10:06:48.167Z,26.2
2023-09-01T10:07:49.950Z,26.2
2023-09-01T10:08:51.720Z,26.2
2023-09-01T10:09:53.555Z,26.2
2023-09-01T10:10:58.126Z,26.2
2023-09-01T10:12:00.000Z,26.2
2023-09-01T10:13:01.698Z,26.2
2023-09-01T10:14:03.501Z,26.2
2023-09-01T10:15:05.298Z,26.2
2023-09-01T10:16:07.142Z,26.2
2023-09-01T10:17:09.248Z,26.3
2023-09-01T10:18:11.127Z,26.3
2023-09-01T10:19:13.745Z,26.3
2023-09-01T10:20:15.541Z,26.3
2023-09-01T10:21:17.293Z,26.3
2023-09-01T10:22:19.036Z,26.3
2023-09-01T10:23:20.842Z,26.3
2023-09-01T10:24:22.557Z,26.3
2023-09-01T10:25:24.319Z,26.3
2023-09-01T10:26:26.201Z,26.2
2023-09-01T10:27:28.937Z,26.2
2023-09-01T10:28:33.239Z,26.2
2023-09-01T10:29:35.014Z,26.2
2023-09-01T10:30:37.067Z,26.3
2023-09-01T10:31:38.993Z,26.3
2023-09-01T10:32:40.899Z,26.3
2023-09-01T10:33:42.946Z,26.3
2023-09-01T10:34:45.107Z,26.3
2023-09-01T10:35:46.859Z,26.3
2023-09-01T10:36:48.658Z,26.3
2023-09-01T10:37:50.388Z,26.3
2023-09-01T10:38:52.186Z,26.3
2023-09-01T10:39:53.941Z,26.3
2023-09-01T10:40:55.685Z,26.3
2023-09-01T10:41:57.415Z,26.3
2023-09-01T10:42:59.307Z,26.3
2023-09-01T10:44:01.010Z,26.3
2023-09-01T10:45:02.761Z,26.3
2023-09-01T10:46:04.592Z,26.2
2023-09-01T10:47:06.490Z,26.2
2023-09-01T10:48:08.319Z,26.3
2023-09-01T10:49:10.288Z,26.3
2023-09-01T10:50:12.032Z,26.3
2023-09-01T10:51:13.775Z,26.3
2023-09-01T10:52:15.610Z,26.3
2023-09-01T10:53:17.339Z,26.3
2023-09-01T10:54:19.125Z,26.3
2023-09-01T10:55:20.890Z,26.3
2023-09-01T10:56:23.017Z,26.3
2023-09-01T10:57:24.782Z,26.3
2023-09-01T10:58:26.626Z,26.3
2023-09-01T10:59:28.437Z,26.4
2023-09-01T11:00:30.258Z,26.4
2023-09-01T11:01:32.454Z,26.4
2023-09-01T11:02:34.538Z,26.3
2023-09-01T11:03:36.680Z,26.3
2023-09-01T11:04:38.386Z,26.3
2023-09-01T11:05:40.157Z,26.3
2023-09-01T11:06:41.897Z,26.3
2023-09-01T11:07:43.620Z,26.3
2023-09-01T11:08:45.333Z,26.3
2023-09-01T11:09:47.124Z,26.3
2023-09-01T11:10:48.838Z,26.3
2023-09-01T11:11:50.548Z,26.3
2023-09-01T11:12:52.467Z,26.3
2023-09-01T11:13:54.241Z,26.3
2023-09-01T11:14:55.967Z,26.3
2023-09-01T11:15:57.862Z,26.3
2023-09-01T11:16:59.642Z,26.4
2023-09-01T11:18:01.666Z,26.4
2023-09-01T11:19:03.626Z,26.3
2023-09-01T11:20:05.741Z,26.3
2023-09-01T11:21:10.320Z,26.3
2023-09-01T11:22:12.158Z,26.4
2023-09-01T11:23:13.866Z,26.4
2023-09-01T11:24:15.590Z,26.3
2023-09-01T11:25:17.335Z,26.3
2023-09-01T11:26:19.073Z,26.3
2023-09-01T11:27:20.882Z,26.3
2023-09-01T11:28:22.644Z,26.3
2023-09-01T11:29:24.412Z,26.3
2023-09-01T11:30:26.121Z,26.3
2023-09-01T11:31:27.833Z,26.3
2023-09-01T11:32:29.679Z,26.3
2023-09-01T11:33:32.251Z,26.4
2023-09-01T11:34:34.643Z,26.4
2023-09-01T11:35:36.624Z,26.4
2023-09-01T11:36:38.460Z,26.4
2023-09-01T11:37:40.179Z,26.4
2023-09-01T11:38:42.018Z,26.3
2023-09-01T11:39:43.826Z,26.3
2023-09-01T11:40:45.612Z,26.3
2023-09-01T11:41:47.996Z,26.3
2023-09-01T11:42:49.751Z,26.4
2023-09-01T11:43:51.582Z,26.4
2023-09-01T11:44:53.330Z,26.4
2023-09-01T11:45:55.072Z,26.4
2023-09-01T11:46:57.137Z,26.4
2023-09-01T11:47:58.919Z,26.3
2023-09-01T11:49:00.649Z,26.3
2023-09-01T11:50:02.373Z,26.3
2023-09-01T11:51:04.137Z,26.3
2023-09-01T11:52:05.885Z,26.3
2023-09-01T11:53:07.584Z,26.3
2023-09-01T11:54:09.325Z,26.3
2023-09-01T11:55:11.233Z,26.3
2023-09-01T11:56:13.554Z,26.3
2023-09-01T11:57:15.315Z,26.3
2023-09-01T11:58:17.105Z,26.3
2023-09-01T11:59:18.824Z,26.3
2023-09-01T12:00:20.672Z,26.3
2023-09-01T12:01:22.670Z,26.3
2023-09-01T12:02:24.783Z,26.3
2023-09-01T12:03:26.926Z,26.3
2023-09-01T12:04:28.784Z,26.3
2023-09-01T12:05:30.548Z,26.3
2023-09-01T12:06:32.281Z,26.3
2023-09-01T12:07:33.976Z,26.3
2023-09-01T12:08:35.698Z,26.3
2023-09-01T12:09:37.409Z,26.3
2023-09-01T12:10:39.203Z,26.3
2023-09-01T12:11:40.968Z,26.3
2023-09-01T12:12:42.759Z,26.3
2023-09-01T12:13:44.530Z,26.3
2023-09-01T12:14:46.457Z,26.3
2023-09-01T12:15:48.307Z,26.3
2023-09-01T12:16:52.347Z,26.3
2023-09-01T12:17:56.226Z,26.3
2023-09-01T12:18:58.495Z,26.3
2023-09-01T12:20:00.360Z,26.4
2023-09-01T12:21:02.345Z,26.3
2023-09-01T12:22:04.104Z,26.3
2023-09-01T12:23:05.847Z,26.3
2023-09-01T12:24:07.549Z,26.3
2023-09-01T12:25:09.293Z,26.3
2023-09-01T12:26:11.072Z,26.3
2023-09-01T12:27:12.804Z,26.3
2023-09-01T12:28:14.866Z,26.3
2023-09-01T12:29:16.640Z,26.3
2023-09-01T12:30:18.470Z,26.3
2023-09-01T12:31:20.550Z,26.3
2023-09-01T12:32:22.427Z,26.3
2023-09-01T12:33:24.167Z,26.3
2023-09-01T12:34:26.448Z,26.3
2023-09-01T12:35:28.445Z,26.3
2023-09-01T12:36:30.541Z,26.2
2023-09-01T12:37:32.288Z,26.2
2023-09-01T12:38:34.354Z,26.3
2023-09-01T12:39:36.190Z,26.3
2023-09-01T12:40:37.925Z,26.3
2023-09-01T12:41:39.760Z,26.3
2023-09-01T12:42:41.556Z,26.2
2023-09-01T12:43:43.499Z,26.2
2023-09-01T12:44:45.371Z,26.3
2023-09-01T12:45:47.099Z,26.3
2023-09-01T12:46:49.198Z,26.2
2023-09-01T12:47:50.963Z,26.2
2023-09-01T12:48:52.762Z,26.2
2023-09-01T12:49:54.639Z,26.2
2023-09-01T12:50:59.383Z,26.2
2023-09-01T12:52:04.041Z,26.2
2023-09-01T12:53:05.787Z,26.3
2023-09-01T12:54:07.561Z,26.3
2023-09-01T12:55:09.256Z,26.3
2023-09-01T12:56:11.050Z,26.3
2023-09-01T12:57:13.170Z,26.3
2023-09-01T12:58:14.898Z,26.2
2023-09-01T12:59:16.698Z,26.2
2023-09-01T13:00:18.392Z,26.3
2023-09-01T13:01:20.235Z,26.3
2023-09-01T13:02:22.137Z,26.3
2023-09-01T13:03:24.205Z,26.3
2023-09-01T13:04:26.432Z,26.3
2023-09-01T13:05:28.210Z,26.3
2023-09-01T13:06:30.485Z,26.3
2023-09-01T13:07:32.260Z,26.3
2023-09-01T13:08:34.001Z,26.3
2023-09-01T13:09:35.729Z,26.3
2023-09-01T13:10:37.566Z,26.3
2023-09-01T13:11:39.357Z,26.2
2023-09-01T13:12:42.304Z,26.3
2023-09-01T13:13:44.143Z,26.3
2023-09-01T13:14:45.932Z,26.3
2023-09-01T13:15:50.680Z,26.3
2023-09-01T13:16:55.544Z,26.2
2023-09-01T13:17:57.339Z,26.2
2023-09-01T13:18:59.347Z,26.2
2023-09-01T13:20:01.085Z,26.2
2023-09-01T13:21:02.883Z,26.3
2023-09-01T13:22:04.759Z,26.3
2023-09-01T13:23:06.539Z,26.3
2023-09-01T13:24:08.351Z,26.2
2023-09-01T13:25:10.082Z,26.2
2023-09-01T13:26:14.678Z,26.2
2023-09-01T13:27:16.483Z,26.2
2023-09-01T13:28:18.356Z,26.3
2023-09-01T13:29:20.099Z,26.3
2023-09-01T13:30:21.808Z,26.3
2023-09-01T13:31:23.565Z,26.3
2023-09-01T13:32:25.662Z,26.2
2023-09-01T13:33:27.504Z,26.2
2023-09-01T13:34:29.413Z,26.3
2023-09-01T13:35:31.140Z,26.3
2023-09-01T13:36:33.210Z,26.3
2023-09-01T13:37:35.858Z,26.3
2023-09-01T13:38:38.073Z,26.3
2023-09-01T13:39:39.814Z,26.3
2023-09-01T13:40:41.588Z,26.3
2023-09-01T13:41:43.302Z,26.3
2023-09-01T13:42:45.097Z,26.3
2023-09-01T13:43:47.015Z,26.3
2023-09-01T13:44:48.772Z,26.3
2023-09-01T13:45:50.465Z,26.3
2023-09-01T13:46:52.286Z,26.3
2023-09-01T13:47:54.524Z,26.3
2023-09-01T13:48:56.479Z,26.2
2023-09-01T13:49:58.218Z,26.2
2023-09-01T13:50:59.958Z,26.2
2023-09-01T13:52:01.759Z,26.2